sensor_id;sensor_type;location;lat;lon;timestamp;pressure;altitude;pressure_sealevel;temperature;humidity
30724;BME280;17473;52.286;20.930;2023-05-08T00:01:29;101653.31;;;5.72;88.82
30724;BME280;17473;52.286;20.930;2023-05-08T00:03:57;101662.97;;;5.85;88.25
30724;BME280;17473;52.286;20.930;2023-05-08T00:06:24;101654.41;;;5.88;87.85
30724;BME280;17473;52.286;20.930;2023-05-08T00:08:56;101654.19;;;5.85;87.78
30724;BME280;17473;52.286;20.930;2023-05-08T00:11:23;101658.09;;;5.78;88.01
30724;BME280;17473;52.286;20.930;2023-05-08T00:13:50;101660.94;;;5.57;89.16
30724;BME280;17473;52.286;20.930;2023-05-08T00:16:17;101657.19;;;5.54;89.51
30724;BME280;17473;52.286;20.930;2023-05-08T00:18:45;101660.94;;;5.45;89.74
30724;BME280;17473;52.286;20.930;2023-05-08T00:21:12;101657.06;;;5.40;90.09
30724;BME280;17473;52.286;20.930;2023-05-08T00:23:39;101668.91;;;5.35;90.47
30724;BME280;17473;52.286;20.930;2023-05-08T00:26:07;101662.78;;;5.46;90.39
30724;BME280;17473;52.286;20.930;2023-05-08T00:28:34;101658.41;;;5.59;89.66
30724;BME280;17473;52.286;20.930;2023-05-08T00:31:01;101665.03;;;5.54;89.72
30724;BME280;17473;52.286;20.930;2023-05-08T00:33:28;101672.22;;;5.56;89.37
30724;BME280;17473;52.286;20.930;2023-05-08T00:36:03;101659.78;;;5.77;88.33
30724;BME280;17473;52.286;20.930;2023-05-08T00:38:32;101659.44;;;5.85;87.97
30724;BME280;17473;52.286;20.930;2023-05-08T00:41:00;101664.91;;;5.88;87.91
30724;BME280;17473;52.286;20.930;2023-05-08T00:43:28;101673.13;;;5.80;88.01
30724;BME280;17473;52.286;20.930;2023-05-08T00:45:59;101671.06;;;5.76;88.43
30724;BME280;17473;52.286;20.930;2023-05-08T00:48:32;101673.25;;;5.70;88.85
30724;BME280;17473;52.286;20.930;2023-05-08T00:51:03;101670.72;;;5.72;88.57
30724;BME280;17473;52.286;20.930;2023-05-08T00:53:34;101672.56;;;5.73;88.67
30724;BME280;17473;52.286;20.930;2023-05-08T00:56:02;101676.75;;;5.71;88.71
30724;BME280;17473;52.286;20.930;2023-05-08T00:58:31;101685.22;;;5.67;88.40
30724;BME280;17473;52.286;20.930;2023-05-08T01:00:58;101686.69;;;5.63;89.14
30724;BME280;17473;52.286;20.930;2023-05-08T01:03:27;101693.03;;;5.43;90.07
30724;BME280;17473;52.286;20.930;2023-05-08T01:05:54;101689.31;;;5.51;90.79
30724;BME280;17473;52.286;20.930;2023-05-08T01:08:22;101697.59;;;5.33;90.78
30724;BME280;17473;52.286;20.930;2023-05-08T01:11:29;101703.53;;;5.43;91.49
30724;BME280;17473;52.286;20.930;2023-05-08T01:14:28;101700.94;;;5.55;91.39
30724;BME280;17473;52.286;20.930;2023-05-08T01:17:35;101704.13;;;5.51;91.72
30724;BME280;17473;52.286;20.930;2023-05-08T01:34:32;101706.63;;;5.37;93.97
30724;BME280;17473;52.286;20.930;2023-05-08T01:37:05;101709.09;;;5.36;93.58
30724;BME280;17473;52.286;20.930;2023-05-08T01:40:01;101706.72;;;5.39;93.08
30724;BME280;17473;52.286;20.930;2023-05-08T01:42:49;101718.31;;;5.30;94.15
30724;BME280;17473;52.286;20.930;2023-05-08T01:45:27;101721.28;;;5.23;94.42
30724;BME280;17473;52.286;20.930;2023-05-08T01:48:06;101721.38;;;5.25;94.86
30724;BME280;17473;52.286;20.930;2023-05-08T01:50:46;101721.03;;;5.20;94.66
30724;BME280;17473;52.286;20.930;2023-05-08T01:53:36;101722.50;;;5.16;94.49
30724;BME280;17473;52.286;20.930;2023-05-08T01:56:11;101721.28;;;5.23;94.07
30724;BME280;17473;52.286;20.930;2023-05-08T01:58:40;101717.72;;;5.11;94.84
30724;BME280;17473;52.286;20.930;2023-05-08T02:01:11;101714.41;;;5.13;94.94
30724;BME280;17473;52.286;20.930;2023-05-08T02:03:41;101720.06;;;5.08;95.27
30724;BME280;17473;52.286;20.930;2023-05-08T02:06:13;101720.66;;;5.04;94.58
30724;BME280;17473;52.286;20.930;2023-05-08T02:08:43;101719.56;;;4.90;94.52
30724;BME280;17473;52.286;20.930;2023-05-08T02:11:12;101723.31;;;4.81;95.67
30724;BME280;17473;52.286;20.930;2023-05-08T02:13:40;101724.34;;;4.83;95.44
30724;BME280;17473;52.286;20.930;2023-05-08T02:16:10;101729.06;;;4.77;94.79
30724;BME280;17473;52.286;20.930;2023-05-08T02:18:40;101723.31;;;4.81;94.91
30724;BME280;17473;52.286;20.930;2023-05-08T02:21:11;101720.72;;;4.93;94.04
30724;BME280;17473;52.286;20.930;2023-05-08T02:23:40;101732.31;;;4.85;93.82
30724;BME280;17473;52.286;20.930;2023-05-08T02:26:09;101722.25;;;4.79;93.74
30724;BME280;17473;52.286;20.930;2023-05-08T02:28:39;101730.13;;;4.79;93.54
30724;BME280;17473;52.286;20.930;2023-05-08T02:31:08;101731.59;;;4.53;94.21
30724;BME280;17473;52.286;20.930;2023-05-08T02:33:40;101726.34;;;4.53;95.19
30724;BME280;17473;52.286;20.930;2023-05-08T02:36:09;101724.78;;;4.56;94.98
30724;BME280;17473;52.286;20.930;2023-05-08T02:38:38;101723.69;;;4.42;94.69
30724;BME280;17473;52.286;20.930;2023-05-08T02:41:07;101722.22;;;4.45;95.06
30724;BME280;17473;52.286;20.930;2023-05-08T02:43:35;101734.09;;;4.52;94.63
30724;BME280;17473;52.286;20.930;2023-05-08T02:46:57;101729.81;;;4.42;95.30
30724;BME280;17473;52.286;20.930;2023-05-08T02:52:17;101723.13;;;4.46;95.23
30724;BME280;17473;52.286;20.930;2023-05-08T02:55:19;101723.44;;;4.61;94.05
30724;BME280;17473;52.286;20.930;2023-05-08T02:58:23;101726.50;;;4.45;94.71
30724;BME280;17473;52.286;20.930;2023-05-08T03:01:24;101720.38;;;4.44;94.89
30724;BME280;17473;52.286;20.930;2023-05-08T03:04:27;101730.97;;;4.46;94.64
30724;BME280;17473;52.286;20.930;2023-05-08T03:06:56;101723.69;;;4.64;93.87
30724;BME280;17473;52.286;20.930;2023-05-08T03:09:30;101728.13;;;4.65;93.47
30724;BME280;17473;52.286;20.930;2023-05-08T03:12:05;101737.88;;;4.56;93.90
30724;BME280;17473;52.286;20.930;2023-05-08T03:14:44;101734.00;;;4.62;94.17
30724;BME280;17473;52.286;20.930;2023-05-08T03:17:15;101741.94;;;4.74;93.64
30724;BME280;17473;52.286;20.930;2023-05-08T03:19:48;101747.19;;;4.74;93.40
30724;BME280;17473;52.286;20.930;2023-05-08T03:22:18;101751.34;;;4.94;92.25
30724;BME280;17473;52.286;20.930;2023-05-08T03:24:47;101754.94;;;5.53;90.03
30724;BME280;17473;52.286;20.930;2023-05-08T03:27:16;101752.81;;;5.94;88.42
30724;BME280;17473;52.286;20.930;2023-05-08T03:29:43;101762.75;;;6.71;83.90
30724;BME280;17473;52.286;20.930;2023-05-08T03:32:12;101764.25;;;7.44;80.54
30724;BME280;17473;52.286;20.930;2023-05-08T03:34:40;101764.53;;;7.87;77.37
30724;BME280;17473;52.286;20.930;2023-05-08T03:37:08;101763.78;;;8.43;74.48
30724;BME280;17473;52.286;20.930;2023-05-08T03:39:35;101761.03;;;8.97;71.51
30724;BME280;17473;52.286;20.930;2023-05-08T03:42:02;101757.56;;;9.86;67.49
30724;BME280;17473;52.286;20.930;2023-05-08T03:44:29;101751.00;;;10.56;63.96
30724;BME280;17473;52.286;20.930;2023-05-08T03:46:58;101760.53;;;11.02;62.11
30724;BME280;17473;52.286;20.930;2023-05-08T03:49:27;101769.50;;;11.39;59.97
30724;BME280;17473;52.286;20.930;2023-05-08T03:51:55;101758.47;;;12.17;57.53
30724;BME280;17473;52.286;20.930;2023-05-08T03:54:22;101752.19;;;13.10;54.35
30724;BME280;17473;52.286;20.930;2023-05-08T03:56:53;101746.38;;;13.38;53.56
30724;BME280;17473;52.286;20.930;2023-05-08T04:02:37;101746.63;;;15.72;46.92
30724;BME280;17473;52.286;20.930;2023-05-08T04:05:37;101741.47;;;16.60;44.35
30724;BME280;17473;52.286;20.930;2023-05-08T04:08:16;101745.75;;;17.46;42.78
30724;BME280;17473;52.286;20.930;2023-05-08T04:13:56;101737.56;;;19.82;37.94
30724;BME280;17473;52.286;20.930;2023-05-08T04:16:27;101745.09;;;20.03;37.24
30724;BME280;17473;52.286;20.930;2023-05-08T04:19:01;101743.84;;;20.39;35.77
30724;BME280;17473;52.286;20.930;2023-05-08T04:21:32;101755.88;;;21.38;34.49
30724;BME280;17473;52.286;20.930;2023-05-08T04:24:01;101755.25;;;22.89;31.74
30724;BME280;17473;52.286;20.930;2023-05-08T04:26:30;101755.31;;;23.08;30.88
30724;BME280;17473;52.286;20.930;2023-05-08T04:28:58;101754.63;;;24.03;29.88
30724;BME280;17473;52.286;20.930;2023-05-08T04:31:26;101756.38;;;24.45;28.48
30724;BME280;17473;52.286;20.930;2023-05-08T04:33:53;101759.50;;;25.57;27.29
30724;BME280;17473;52.286;20.930;2023-05-08T04:36:20;101770.59;;;26.38;26.66
30724;BME280;17473;52.286;20.930;2023-05-08T04:38:47;101767.38;;;26.83;25.74
30724;BME280;17473;52.286;20.930;2023-05-08T04:41:15;101760.94;;;28.17;24.61
30724;BME280;17473;52.286;20.930;2023-05-08T04:43:42;101760.94;;;28.17;23.84
30724;BME280;17473;52.286;20.930;2023-05-08T04:46:09;101763.47;;;28.26;23.99
30724;BME280;17473;52.286;20.930;2023-05-08T04:48:36;101773.13;;;28.42;23.33
30724;BME280;17473;52.286;20.930;2023-05-08T04:51:03;101766.94;;;28.81;23.11
30724;BME280;17473;52.286;20.930;2023-05-08T04:53:31;101772.81;;;28.60;23.37
30724;BME280;17473;52.286;20.930;2023-05-08T04:55:58;101774.50;;;30.58;21.10
30724;BME280;17473;52.286;20.930;2023-05-08T04:58:25;101781.44;;;28.80;22.82
30724;BME280;17473;52.286;20.930;2023-05-08T05:00:52;101786.25;;;29.10;22.75
30724;BME280;17473;52.286;20.930;2023-05-08T05:03:19;101789.97;;;30.23;21.54
30724;BME280;17473;52.286;20.930;2023-05-08T05:05:46;101785.50;;;31.18;20.33
30724;BME280;17473;52.286;20.930;2023-05-08T05:08:13;101787.44;;;30.83;20.60
30724;BME280;17473;52.286;20.930;2023-05-08T05:10:40;101793.53;;;31.51;19.97
30724;BME280;17473;52.286;20.930;2023-05-08T05:13:07;101784.94;;;32.46;19.11
30724;BME280;17473;52.286;20.930;2023-05-08T05:15:34;101793.84;;;32.78;19.10
30724;BME280;17473;52.286;20.930;2023-05-08T05:18:01;101799.78;;;33.13;18.60
30724;BME280;17473;52.286;20.930;2023-05-08T05:20:28;101797.63;;;32.22;18.67
30724;BME280;17473;52.286;20.930;2023-05-08T05:22:55;101800.03;;;32.58;18.72
30724;BME280;17473;52.286;20.930;2023-05-08T05:25:23;101803.66;;;33.07;18.62
30724;BME280;17473;52.286;20.930;2023-05-08T05:27:50;101800.16;;;33.74;17.90
30724;BME280;17473;52.286;20.930;2023-05-08T05:30:17;101800.16;;;33.51;17.73
30724;BME280;17473;52.286;20.930;2023-05-08T05:32:44;101802.34;;;33.18;18.05
30724;BME280;17473;52.286;20.930;2023-05-08T05:35:11;101803.97;;;32.22;18.52
30724;BME280;17473;52.286;20.930;2023-05-08T05:37:39;101808.34;;;33.28;17.86
30724;BME280;17473;52.286;20.930;2023-05-08T05:40:06;101812.72;;;31.20;18.97
30724;BME280;17473;52.286;20.930;2023-05-08T05:42:34;101809.97;;;33.09;18.04
30724;BME280;17473;52.286;20.930;2023-05-08T05:45:01;101809.41;;;33.93;16.90
30724;BME280;17473;52.286;20.930;2023-05-08T05:47:28;101808.41;;;33.26;17.51
30724;BME280;17473;52.286;20.930;2023-05-08T05:49:56;101811.66;;;33.37;17.00
30724;BME280;17473;52.286;20.930;2023-05-08T05:52:24;101810.44;;;32.20;17.71
30724;BME280;17473;52.286;20.930;2023-05-08T05:54:51;101805.69;;;32.77;16.85
30724;BME280;17473;52.286;20.930;2023-05-08T05:57:18;101804.19;;;32.68;17.48
30724;BME280;17473;52.286;20.930;2023-05-08T05:59:45;101816.50;;;33.53;16.79
30724;BME280;17473;52.286;20.930;2023-05-08T06:02:12;101811.66;;;33.60;16.80
30724;BME280;17473;52.286;20.930;2023-05-08T06:04:44;101807.16;;;34.46;16.16
30724;BME280;17473;52.286;20.930;2023-05-08T06:07:11;101815.94;;;33.19;16.49
30724;BME280;17473;52.286;20.930;2023-05-08T06:09:39;101812.53;;;32.63;16.79
30724;BME280;17473;52.286;20.930;2023-05-08T06:12:06;101809.63;;;33.65;16.57
30724;BME280;17473;52.286;20.930;2023-05-08T06:14:34;101811.31;;;34.12;15.96
30724;BME280;17473;52.286;20.930;2023-05-08T06:17:01;101827.34;;;34.43;15.72
30724;BME280;17473;52.286;20.930;2023-05-08T06:19:28;101815.81;;;33.70;16.49
30724;BME280;17473;52.286;20.930;2023-05-08T06:21:55;101815.75;;;34.37;15.47
30724;BME280;17473;52.286;20.930;2023-05-08T06:24:22;101825.59;;;33.30;15.99
30724;BME280;17473;52.286;20.930;2023-05-08T06:26:49;101827.78;;;31.62;17.11
30724;BME280;17473;52.286;20.930;2023-05-08T06:29:16;101812.66;;;32.86;16.40
30724;BME280;17473;52.286;20.930;2023-05-08T06:31:43;101815.06;;;34.11;16.43
30724;BME280;17473;52.286;20.930;2023-05-08T06:34:10;101811.34;;;33.67;16.25
30724;BME280;17473;52.286;20.930;2023-05-08T06:36:37;101814.69;;;34.18;15.35
30724;BME280;17473;52.286;20.930;2023-05-08T06:39:04;101817.44;;;33.74;15.97
30724;BME280;17473;52.286;20.930;2023-05-08T06:41:32;101810.81;;;34.24;15.04
30724;BME280;17473;52.286;20.930;2023-05-08T06:43:59;101815.06;;;34.11;15.19
30724;BME280;17473;52.286;20.930;2023-05-08T06:46:26;101815.75;;;33.26;15.36
30724;BME280;17473;52.286;20.930;2023-05-08T06:48:53;101813.19;;;32.72;15.97
30724;BME280;17473;52.286;20.930;2023-05-08T06:51:20;101816.28;;;30.90;17.21
30724;BME280;17473;52.286;20.930;2023-05-08T06:53:49;101814.28;;;32.14;16.63
30724;BME280;17473;52.286;20.930;2023-05-08T06:56:16;101808.44;;;31.98;16.42
30724;BME280;17473;52.286;20.930;2023-05-08T06:58:43;101793.75;;;32.02;16.84
30724;BME280;17473;52.286;20.930;2023-05-08T07:01:22;101805.38;;;32.09;17.04
30724;BME280;17473;52.286;20.930;2023-05-08T07:03:49;101801.06;;;32.28;17.18
30724;BME280;17473;52.286;20.930;2023-05-08T07:06:17;101806.13;;;32.65;16.38
30724;BME280;17473;52.286;20.930;2023-05-08T07:08:44;101810.38;;;33.46;15.72
30724;BME280;17473;52.286;20.930;2023-05-08T07:11:11;101802.13;;;33.00;16.13
30724;BME280;17473;52.286;20.930;2023-05-08T07:13:38;101803.84;;;33.95;15.28
30724;BME280;17473;52.286;20.930;2023-05-08T07:16:09;101797.06;;;33.37;16.01
30724;BME280;17473;52.286;20.930;2023-05-08T07:18:36;101808.41;;;34.37;15.49
30724;BME280;17473;52.286;20.930;2023-05-08T07:21:04;101809.78;;;32.65;16.96
30724;BME280;17473;52.286;20.930;2023-05-08T07:23:31;101813.19;;;32.46;16.62
30724;BME280;17473;52.286;20.930;2023-05-08T07:25:58;101818.47;;;31.09;17.08
30724;BME280;17473;52.286;20.930;2023-05-08T07:28:25;101817.03;;;29.54;17.65
30724;BME280;17473;52.286;20.930;2023-05-08T07:30:52;101807.63;;;28.37;18.69
30724;BME280;17473;52.286;20.930;2023-05-08T07:33:20;101813.25;;;27.69;19.06
30724;BME280;17473;52.286;20.930;2023-05-08T07:35:47;101812.59;;;28.62;18.57
30724;BME280;17473;52.286;20.930;2023-05-08T07:38:14;101816.63;;;29.32;18.46
30724;BME280;17473;52.286;20.930;2023-05-08T07:40:41;101815.72;;;27.18;20.07
30724;BME280;17473;52.286;20.930;2023-05-08T07:43:08;101814.03;;;27.11;20.26
30724;BME280;17473;52.286;20.930;2023-05-08T07:45:35;101813.13;;;27.08;20.39
30724;BME280;17473;52.286;20.930;2023-05-08T07:48:03;101814.84;;;27.16;20.81
30724;BME280;17473;52.286;20.930;2023-05-08T07:50:30;101808.59;;;28.33;19.69
30724;BME280;17473;52.286;20.930;2023-05-08T07:52:57;101811.88;;;27.98;20.65
30724;BME280;17473;52.286;20.930;2023-05-08T07:55:24;101814.84;;;26.32;20.73
30724;BME280;17473;52.286;20.930;2023-05-08T07:57:51;101805.91;;;27.75;21.50
30724;BME280;17473;52.286;20.930;2023-05-08T08:00:18;101811.50;;;27.64;21.30
30724;BME280;17473;52.286;20.930;2023-05-08T08:02:45;101813.44;;;26.83;20.18
30724;BME280;17473;52.286;20.930;2023-05-08T08:05:12;101808.41;;;26.47;20.38
30724;BME280;17473;52.286;20.930;2023-05-08T08:07:40;101803.50;;;26.85;21.35
30724;BME280;17473;52.286;20.930;2023-05-08T08:10:07;101810.91;;;26.64;21.10
30724;BME280;17473;52.286;20.930;2023-05-08T08:12:35;101812.13;;;26.35;21.91
30724;BME280;17473;52.286;20.930;2023-05-08T08:15:02;101810.34;;;24.57;22.15
30724;BME280;17473;52.286;20.930;2023-05-08T08:17:29;101815.75;;;24.40;22.59
30724;BME280;17473;52.286;20.930;2023-05-08T08:19:56;101809.41;;;23.64;23.14
30724;BME280;17473;52.286;20.930;2023-05-08T08:22:25;101817.22;;;22.95;23.73
30724;BME280;17473;52.286;20.930;2023-05-08T08:24:54;101803.66;;;22.72;24.15
30724;BME280;17473;52.286;20.930;2023-05-08T08:27:22;101793.31;;;24.01;24.15
30724;BME280;17473;52.286;20.930;2023-05-08T08:29:49;101797.75;;;24.44;23.84
30724;BME280;17473;52.286;20.930;2023-05-08T08:32:24;101802.25;;;24.68;23.22
30724;BME280;17473;52.286;20.930;2023-05-08T08:34:51;101797.78;;;24.45;23.26
30724;BME280;17473;52.286;20.930;2023-05-08T08:37:18;101797.72;;;23.72;23.24
30724;BME280;17473;52.286;20.930;2023-05-08T08:39:45;101797.66;;;23.32;23.92
30724;BME280;17473;52.286;20.930;2023-05-08T08:42:14;101790.56;;;23.82;24.04
30724;BME280;17473;52.286;20.930;2023-05-08T08:44:41;101786.94;;;23.65;24.24
30724;BME280;17473;52.286;20.930;2023-05-08T08:47:10;101784.94;;;23.09;24.08
30724;BME280;17473;52.286;20.930;2023-05-08T08:49:47;101793.63;;;21.51;25.96
30724;BME280;17473;52.286;20.930;2023-05-08T08:55:16;101800.81;;;22.49;24.95
30724;BME280;17473;52.286;20.930;2023-05-08T08:58:06;101792.75;;;22.52;25.21
30724;BME280;17473;52.286;20.930;2023-05-08T09:00:39;101785.19;;;24.04;25.73
30724;BME280;17473;52.286;20.930;2023-05-08T09:03:07;101786.06;;;24.35;23.03
30724;BME280;17473;52.286;20.930;2023-05-08T09:05:35;101789.63;;;23.57;23.79
30724;BME280;17473;52.286;20.930;2023-05-08T09:08:02;101772.59;;;24.28;24.13
30724;BME280;17473;52.286;20.930;2023-05-08T09:10:29;101777.03;;;24.69;23.84
30724;BME280;17473;52.286;20.930;2023-05-08T09:12:56;101774.34;;;23.67;23.38
30724;BME280;17473;52.286;20.930;2023-05-08T09:15:24;101784.81;;;21.64;25.43
30724;BME280;17473;52.286;20.930;2023-05-08T09:17:51;101770.13;;;21.33;26.71
30724;BME280;17473;52.286;20.930;2023-05-08T09:20:18;101775.50;;;21.31;26.19
30724;BME280;17473;52.286;20.930;2023-05-08T09:22:45;101778.53;;;21.62;25.09
30724;BME280;17473;52.286;20.930;2023-05-08T09:25:12;101786.13;;;21.22;24.41
30724;BME280;17473;52.286;20.930;2023-05-08T09:27:40;101779.94;;;20.61;24.97
30724;BME280;17473;52.286;20.930;2023-05-08T09:30:09;101780.44;;;19.80;25.07
30724;BME280;17473;52.286;20.930;2023-05-08T09:32:39;101777.25;;;19.52;25.39
30724;BME280;17473;52.286;20.930;2023-05-08T09:35:08;101771.38;;;20.26;24.90
30724;BME280;17473;52.286;20.930;2023-05-08T09:37:41;101773.28;;;19.81;25.68
30724;BME280;17473;52.286;20.930;2023-05-08T09:40:20;101777.31;;;20.06;25.89
30724;BME280;17473;52.286;20.930;2023-05-08T09:42:49;101777.69;;;19.77;25.61
30724;BME280;17473;52.286;20.930;2023-05-08T09:45:29;101771.75;;;19.02;27.08
30724;BME280;17473;52.286;20.930;2023-05-08T09:47:57;101770.34;;;19.19;26.19
30724;BME280;17473;52.286;20.930;2023-05-08T09:50:25;101757.78;;;20.13;26.36
30724;BME280;17473;52.286;20.930;2023-05-08T09:52:53;101769.41;;;19.65;26.35
30724;BME280;17473;52.286;20.930;2023-05-08T09:55:20;101766.84;;;19.23;26.88
30724;BME280;17473;52.286;20.930;2023-05-08T09:57:58;101759.50;;;19.13;27.26
30724;BME280;17473;52.286;20.930;2023-05-08T10:00:27;101758.28;;;19.91;26.67
30724;BME280;17473;52.286;20.930;2023-05-08T10:02:56;101776.19;;;18.60;27.36
30724;BME280;17473;52.286;20.930;2023-05-08T10:05:32;101765.59;;;18.65;27.42
30724;BME280;17473;52.286;20.930;2023-05-08T10:08:22;101761.16;;;18.65;27.50
30724;BME280;17473;52.286;20.930;2023-05-08T10:10:51;101760.06;;;18.97;27.60
30724;BME280;17473;52.286;20.930;2023-05-08T10:13:19;101748.13;;;19.23;26.94
30724;BME280;17473;52.286;20.930;2023-05-08T10:15:51;101749.66;;;20.09;27.35
30724;BME280;17473;52.286;20.930;2023-05-08T10:18:23;101760.16;;;19.01;26.60
30724;BME280;17473;52.286;20.930;2023-05-08T10:20:54;101741.03;;;19.27;26.67
30724;BME280;17473;52.286;20.930;2023-05-08T10:23:21;101758.56;;;18.70;27.60
30724;BME280;17473;52.286;20.930;2023-05-08T10:25:55;101741.03;;;18.41;27.02
30724;BME280;17473;52.286;20.930;2023-05-08T10:28:49;101734.72;;;18.01;27.29
30724;BME280;17473;52.286;20.930;2023-05-08T10:31:17;101749.38;;;18.57;26.72
30724;BME280;17473;52.286;20.930;2023-05-08T10:33:49;101740.59;;;19.05;26.76
30724;BME280;17473;52.286;20.930;2023-05-08T10:36:17;101742.19;;;18.54;27.18
30724;BME280;17473;52.286;20.930;2023-05-08T10:38:44;101733.84;;;18.82;27.17
30724;BME280;17473;52.286;20.930;2023-05-08T10:41:11;101737.94;;;17.89;27.56
30724;BME280;17473;52.286;20.930;2023-05-08T10:43:41;101730.81;;;17.90;27.76
30724;BME280;17473;52.286;20.930;2023-05-08T10:46:28;101731.94;;;16.97;29.30
30724;BME280;17473;52.286;20.930;2023-05-08T10:52:11;101729.63;;;17.77;29.43
30724;BME280;17473;52.286;20.930;2023-05-08T10:55:15;101727.38;;;17.25;28.91
30724;BME280;17473;52.286;20.930;2023-05-08T10:58:14;101733.66;;;17.27;28.46
30724;BME280;17473;52.286;20.930;2023-05-08T11:03:28;101722.28;;;17.68;29.57
30724;BME280;17473;52.286;20.930;2023-05-08T11:05:59;101712.97;;;17.89;28.84
30724;BME280;17473;52.286;20.930;2023-05-08T11:08:30;101717.53;;;17.91;27.83
30724;BME280;17473;52.286;20.930;2023-05-08T11:16:09;101715.25;;;17.38;26.53
30724;BME280;17473;52.286;20.930;2023-05-08T11:18:37;101717.75;;;16.98;28.13
30724;BME280;17473;52.286;20.930;2023-05-08T11:21:19;101719.78;;;16.48;28.32
30724;BME280;17473;52.286;20.930;2023-05-08T11:23:56;101705.75;;;16.53;29.05
30724;BME280;17473;52.286;20.930;2023-05-08T11:26:38;101712.81;;;17.14;29.37
30724;BME280;17473;52.286;20.930;2023-05-08T11:29:15;101696.94;;;16.88;28.16
30724;BME280;17473;52.286;20.930;2023-05-08T11:31:50;101695.25;;;17.22;28.46
30724;BME280;17473;52.286;20.930;2023-05-08T11:37:21;101703.00;;;16.82;27.45
30724;BME280;17473;52.286;20.930;2023-05-08T11:39:50;101691.63;;;16.57;28.15
30724;BME280;17473;52.286;20.930;2023-05-08T11:45:07;101692.06;;;16.73;28.95
30724;BME280;17473;52.286;20.930;2023-05-08T11:47:43;101696.91;;;17.17;28.07
30724;BME280;17473;52.286;20.930;2023-05-08T11:50:12;101686.97;;;16.81;28.58
30724;BME280;17473;52.286;20.930;2023-05-08T11:52:41;101689.91;;;16.90;28.16
30724;BME280;17473;52.286;20.930;2023-05-08T11:55:10;101696.16;;;16.60;28.34
30724;BME280;17473;52.286;20.930;2023-05-08T11:57:41;101695.56;;;16.40;28.14
30724;BME280;17473;52.286;20.930;2023-05-08T12:00:10;101690.91;;;16.63;27.53
30724;BME280;17473;52.286;20.930;2023-05-08T12:02:40;101687.97;;;16.84;28.15
30724;BME280;17473;52.286;20.930;2023-05-08T12:05:08;101680.25;;;17.26;28.44
30724;BME280;17473;52.286;20.930;2023-05-08T12:07:45;101685.47;;;17.21;28.32
30724;BME280;17473;52.286;20.930;2023-05-08T12:10:14;101683.06;;;16.98;27.73
30724;BME280;17473;52.286;20.930;2023-05-08T12:12:43;101689.41;;;16.73;28.53
30724;BME280;17473;52.286;20.930;2023-05-08T12:15:13;101691.31;;;16.77;28.08
30724;BME280;17473;52.286;20.930;2023-05-08T12:17:41;101682.78;;;16.58;28.13
30724;BME280;17473;52.286;20.930;2023-05-08T12:20:17;101690.25;;;16.72;29.00
30724;BME280;17473;52.286;20.930;2023-05-08T12:22:52;101683.59;;;16.86;28.82
30724;BME280;17473;52.286;20.930;2023-05-08T12:25:19;101666.66;;;17.16;28.40
30724;BME280;17473;52.286;20.930;2023-05-08T12:27:46;101666.78;;;16.90;28.21
30724;BME280;17473;52.286;20.930;2023-05-08T12:30:14;101664.75;;;17.46;28.84
30724;BME280;17473;52.286;20.930;2023-05-08T12:32:43;101665.03;;;17.58;28.43
30724;BME280;17473;52.286;20.930;2023-05-08T12:35:11;101664.03;;;17.53;27.96
30724;BME280;17473;52.286;20.930;2023-05-08T12:37:39;101663.06;;;17.86;28.33
30724;BME280;17473;52.286;20.930;2023-05-08T12:40:07;101664.91;;;17.18;27.91
30724;BME280;17473;52.286;20.930;2023-05-08T12:42:46;101658.19;;;17.68;27.48
30724;BME280;17473;52.286;20.930;2023-05-08T12:45:24;101660.00;;;18.06;28.17
30724;BME280;17473;52.286;20.930;2023-05-08T12:48:02;101651.91;;;18.03;27.09
30724;BME280;17473;52.286;20.930;2023-05-08T12:50:38;101651.28;;;17.78;27.11
30724;BME280;17473;52.286;20.930;2023-05-08T12:53:11;101653.97;;;17.41;27.92
30724;BME280;17473;52.286;20.930;2023-05-08T12:55:49;101656.63;;;17.08;28.49
30724;BME280;17473;52.286;20.930;2023-05-08T12:58:24;101657.88;;;16.88;28.76
30724;BME280;17473;52.286;20.930;2023-05-08T13:00:53;101652.91;;;16.70;28.21
30724;BME280;17473;52.286;20.930;2023-05-08T13:03:30;101642.94;;;16.95;28.66
30724;BME280;17473;52.286;20.930;2023-05-08T13:05:57;101640.38;;;17.32;28.15
30724;BME280;17473;52.286;20.930;2023-05-08T13:08:35;101643.25;;;17.06;27.70
30724;BME280;17473;52.286;20.930;2023-05-08T13:11:05;101639.06;;;17.16;27.65
30724;BME280;17473;52.286;20.930;2023-05-08T13:13:34;101632.31;;;17.30;28.70
30724;BME280;17473;52.286;20.930;2023-05-08T13:16:04;101631.25;;;17.24;28.71
30724;BME280;17473;52.286;20.930;2023-05-08T13:18:32;101625.97;;;17.27;28.22
30724;BME280;17473;52.286;20.930;2023-05-08T13:21:02;101636.22;;;17.43;28.68
30724;BME280;17473;52.286;20.930;2023-05-08T13:23:29;101636.72;;;17.65;28.16
30724;BME280;17473;52.286;20.930;2023-05-08T13:25:56;101633.38;;;17.37;26.27
30724;BME280;17473;52.286;20.930;2023-05-08T13:28:23;101624.16;;;17.24;27.25
30724;BME280;17473;52.286;20.930;2023-05-08T13:30:50;101623.38;;;17.28;26.86
30724;BME280;17473;52.286;20.930;2023-05-08T13:33:17;101619.38;;;17.46;27.44
30724;BME280;17473;52.286;20.930;2023-05-08T13:35:44;101618.88;;;17.62;27.49
30724;BME280;17473;52.286;20.930;2023-05-08T13:38:11;101615.72;;;17.80;27.77
30724;BME280;17473;52.286;20.930;2023-05-08T13:40:38;101613.50;;;17.97;26.75
30724;BME280;17473;52.286;20.930;2023-05-08T13:43:05;101617.13;;;18.01;26.98
30724;BME280;17473;52.286;20.930;2023-05-08T13:45:33;101605.47;;;17.97;27.17